Time;durP1;ratioP1;P1;durP2;ratioP2;P2;SDS_P1;SDS_P2;PMS_P1;PMS_P2;Temp;Humidity;BMP_temperature;BMP_pressure;BME280_temperature;BME280_humidity;BME280_pressure;Samples;Min_cycle;Max_cycle;Signal;HPM_P1;HPM_P2
2021/04/17 11:24:33;;;;;;;6.74;3.04;;;;;;;;;;2186045;62;1365721;-78
2021/04/17 11:27:07;;;;;;;6.85;2.85;;;;;;;;;;2226034;63;77068;-79
2021/04/17 11:29:34;;;;;;;9.35;3.13;;;;;;;;;;2223863;63;89591;-80
2021/04/17 11:32:00;;;;;;;5.95;3.13;;;;;;;;;;2225751;64;20317;-78
2021/04/17 11:34:27;;;;;;;5.18;3.22;;;;;;;;;;2233245;64;20315;-79
2021/04/17 11:36:53;;;;;;;7.65;3.28;;;;;;;;;;2230978;64;20333;-71
2021/04/17 11:39:21;;;;;;;7.72;3.08;;;;;;;;;;2231207;64;20659;-75
2021/04/17 11:41:56;;;;;;;8.95;2.80;;;;;;;;;;2226618;64;20256;-82
2021/04/17 11:44:22;;;;;;;6.10;3.05;;;;;;;;;;2233039;64;20231;-88
2021/04/17 11:46:48;;;;;;;6.63;3.10;;;;;;;;;;2231905;64;20184;-89
2021/04/17 11:49:15;;;;;;;5.90;3.30;;;;;;;;;;2233837;64;20284;-88
2021/04/17 11:51:43;;;;;;;6.38;2.80;;;;;;;;;;2231070;64;20194;-87
2021/04/17 11:54:09;;;;;;;6.32;2.60;;;;;;;;;;2228928;64;20215;-87
2021/04/17 11:56:36;;;;;;;5.57;2.97;;;;;;;;;;2227576;64;20360;-89
2021/04/17 11:59:02;;;;;;;7.13;3.33;;;;;;;;;;2223924;64;20630;-87
2021/04/17 12:01:28;;;;;;;6.53;2.88;;;;;;;;;;2223314;64;20587;-88
2021/04/17 12:03:58;;;;;;;8.43;3.05;;;;;;;;;;2224761;64;20445;-88
2021/04/17 12:06:34;;;;;;;9.18;3.33;;;;;;;;;;2227004;64;20167;-87
2021/04/17 12:09:04;;;;;;;4.85;2.70;;;;;;;;;;2229027;64;20181;-88
2021/04/17 12:11:32;;;;;;;6.80;3.10;;;;;;;;;;2230628;64;20179;-86
2021/04/17 12:14:01;;;;;;;6.47;3.13;;;;;;;;;;2229561;64;20283;-90
2021/04/17 12:16:27;;;;;;;4.85;2.85;;;;;;;;;;2226644;64;20196;-88
2021/04/17 12:18:54;;;;;;;6.40;2.58;;;;;;;;;;2233677;64;20252;-87
2021/04/17 12:21:26;;;;;;;7.35;2.70;;;;;;;;;;2227684;64;20310;-88
2021/04/17 12:23:57;;;;;;;5.90;2.75;;;;;;;;;;2229379;64;20153;-87
2021/04/17 12:26:32;;;;;;;6.43;2.90;;;;;;;;;;2229319;64;20171;-87
2021/04/17 12:29:23;;;;;;;4.10;2.55;;;;;;;;;;2229699;64;20205;-87
2021/04/17 12:31:55;;;;;;;6.00;2.45;;;;;;;;;;2228876;64;20215;-87
2021/04/17 12:34:43;;;;;;;6.22;3.10;;;;;;;;;;2231087;64;20174;-85
2021/04/17 12:37:16;;;;;;;6.28;2.58;;;;;;;;;;2226798;64;20265;-86
2021/04/17 12:39:46;;;;;;;6.60;3.30;;;;;;;;;;2230771;64;20193;-88
2021/04/17 12:42:18;;;;;;;3.97;2.70;;;;;;;;;;2230198;64;20328;-86
2021/04/17 12:45:08;;;;;;;5.32;2.50;;;;;;;;;;2231499;64;20164;-87
2021/04/17 12:47:35;;;;;;;8.25;2.65;;;;;;;;;;2231891;64;20159;-87
2021/04/17 12:50:11;;;;;;;8.07;2.50;;;;;;;;;;2233115;64;20256;-85
2021/04/17 12:52:45;;;;;;;8.77;3.53;;;;;;;;;;2233215;64;20164;-87
2021/04/17 12:55:25;;;;;;;7.47;3.55;;;;;;;;;;2232168;64;20204;-85
2021/04/17 12:58:12;;;;;;;5.15;3.35;;;;;;;;;;2231640;64;20193;-88
2021/04/17 13:00:47;;;;;;;6.88;2.90;;;;;;;;;;2231933;64;20258;-85
2021/04/17 13:03:20;;;;;;;6.35;3.15;;;;;;;;;;2231533;64;20184;-85
2021/04/17 13:05:52;;;;;;;7.65;2.88;;;;;;;;;;2230702;64;20180;-85
2021/04/17 13:08:18;;;;;;;5.72;2.38;;;;;;;;;;2230123;64;20707;-83
2021/04/17 13:10:51;;;;;;;5.35;2.55;;;;;;;;;;2232178;64;20176;-83
2021/04/17 13:13:43;;;;;;;9.06;2.69;;;;;;;;;;2212399;64;5856170;-86
2021/04/17 13:16:13;;;;;;;4.10;2.60;;;;;;;;;;2225947;64;20307;-84
2021/04/17 13:18:53;;;;;;;5.78;2.67;;;;;;;;;;2238994;64;20112;-84
2021/04/17 13:21:54;;;;;;;6.60;2.85;;;;;;;;;;2236379;64;20272;-84
2021/04/17 13:24:45;;;;;;;5.50;2.53;;;;;;;;;;2240871;64;20238;-85
2021/04/17 13:27:17;;;;;;;4.05;2.50;;;;;;;;;;2238219;63;20164;-86
2021/04/17 13:29:48;;;;;;;9.38;3.95;;;;;;;;;;2234045;64;20237;-87
2021/04/17 13:32:33;;;;;;;6.78;2.85;;;;;;;;;;2229149;64;20243;-87
2021/04/17 13:35:10;;;;;;;5.05;2.85;;;;;;;;;;2234277;64;20128;-86
2021/04/17 13:37:45;;;;;;;6.97;3.10;;;;;;;;;;2229026;64;20195;-84
2021/04/17 13:40:15;;;;;;;5.55;2.55;;;;;;;;;;2231562;64;20590;-88
2021/04/17 13:42:44;;;;;;;4.43;3.05;;;;;;;;;;2234084;64;20190;-86
2021/04/17 13:45:12;;;;;;;5.28;2.88;;;;;;;;;;2234559;64;20768;-88
2021/04/17 13:47:39;;;;;;;6.93;2.90;;;;;;;;;;2232303;64;20188;-85
2021/04/17 13:50:07;;;;;;;4.78;2.92;;;;;;;;;;2234431;64;20159;-85
2021/04/17 13:52:34;;;;;;;6.40;2.40;;;;;;;;;;2227772;64;20340;-84
2021/04/17 13:55:01;;;;;;;5.88;3.15;;;;;;;;;;2235329;64;20679;-84
2021/04/17 13:57:27;;;;;;;4.80;2.13;;;;;;;;;;2235718;64;20196;-85
2021/04/17 13:59:53;;;;;;;5.28;2.20;;;;;;;;;;2232527;64;20294;-86
2021/04/17 14:02:25;;;;;;;5.20;2.42;;;;;;;;;;2234202;64;20293;-84
2021/04/17 14:04:54;;;;;;;5.22;2.65;;;;;;;;;;2243272;64;20194;-86
2021/04/17 14:07:21;;;;;;;7.60;2.50;;;;;;;;;;2231871;64;20214;-84
2021/04/17 14:09:57;;;;;;;5.47;2.60;;;;;;;;;;2235636;64;20212;-86
2021/04/17 14:12:24;;;;;;;4.90;2.80;;;;;;;;;;2228955;64;20243;-87
2021/04/17 14:14:51;;;;;;;4.32;2.50;;;;;;;;;;2238355;64;20166;-87
2021/04/17 14:17:20;;;;;;;6.93;2.33;;;;;;;;;;2227603;64;20318;-86
2021/04/17 14:19:50;;;;;;;4.78;2.40;;;;;;;;;;2230547;64;20339;-85
2021/04/17 14:22:19;;;;;;;5.03;2.33;;;;;;;;;;2227408;64;20191;-85
2021/04/17 14:24:54;;;;;;;4.18;2.67;;;;;;;;;;2233726;64;20242;-86
2021/04/17 14:27:23;;;;;;;6.25;2.78;;;;;;;;;;2229897;64;20183;-87
2021/04/17 14:29:52;;;;;;;6.18;2.50;;;;;;;;;;2230498;64;20174;-86
2021/04/17 14:32:21;;;;;;;6.03;2.70;;;;;;;;;;2236332;64;20312;-87
2021/04/17 14:34:52;;;;;;;7.18;4.53;;;;;;;;;;2232318;64;20170;-89
2021/04/17 14:37:24;;;;;;;4.88;2.45;;;;;;;;;;2235461;64;20226;-86
2021/04/17 14:39:50;;;;;;;3.47;2.22;;;;;;;;;;2234983;64;20288;-87
2021/04/17 14:42:16;;;;;;;5.78;2.20;;;;;;;;;;2236836;64;20345;-86
2021/04/17 14:44:44;;;;;;;6.40;2.30;;;;;;;;;;2238813;64;20234;-85
2021/04/17 14:47:10;;;;;;;6.50;2.60;;;;;;;;;;2242877;64;20680;-88
2021/04/17 14:49:40;;;;;;;6.30;4.10;;;;;;;;;;2234096;64;20210;-87
2021/04/17 14:52:06;;;;;;;6.10;3.88;;;;;;;;;;2227037;64;20159;-89
2021/04/17 14:54:32;;;;;;;6.63;2.42;;;;;;;;;;2234878;64;20195;-87
2021/04/17 14:56:59;;;;;;;8.15;4.15;;;;;;;;;;2234847;64;20179;-88
2021/04/17 14:59:26;;;;;;;6.95;5.00;;;;;;;;;;2233969;64;20182;-87
2021/04/17 15:01:52;;;;;;;6.40;4.05;;;;;;;;;;2234178;64;20741;-88
2021/04/17 15:04:20;;;;;;;7.82;5.75;;;;;;;;;;2235988;64;20235;-87
2021/04/17 15:06:47;;;;;;;7.03;3.13;;;;;;;;;;2235860;64;20347;-85
2021/04/17 15:09:14;;;;;;;6.22;2.60;;;;;;;;;;2227413;64;20226;-85
2021/04/17 15:11:42;;;;;;;4.55;2.17;;;;;;;;;;2234745;64;20175;-87
2021/04/17 15:14:08;;;;;;;7.50;4.28;;;;;;;;;;2235811;64;20150;-87
2021/04/17 15:16:37;;;;;;;4.70;2.30;;;;;;;;;;2235904;64;20307;-88
2021/04/17 15:19:12;;;;;;;6.25;4.20;;;;;;;;;;2236812;64;20258;-84
2021/04/17 15:21:52;;;;;;;6.35;2.55;;;;;;;;;;2233661;64;20178;-87
2021/04/17 15:24:22;;;;;;;11.25;3.25;;;;;;;;;;2233701;64;20207;-85
2021/04/17 15:26:49;;;;;;;15.02;12.52;;;;;;;;;;2234278;64;20281;-88
2021/04/17 15:29:15;;;;;;;9.13;4.70;;;;;;;;;;2234184;64;20651;-87
2021/04/17 15:31:43;;;;;;;4.22;2.30;;;;;;;;;;2234744;64;20175;-87
2021/04/17 15:34:10;;;;;;;11.45;7.05;;;;;;;;;;2235293;64;20192;-89
2021/04/17 15:36:37;;;;;;;7.47;5.60;;;;;;;;;;2233409;64;20176;-88
2021/04/17 15:39:09;;;;;;;7.00;5.13;;;;;;;;;;2232678;64;20175;-87
2021/04/17 15:41:36;;;;;;;9.63;6.50;;;;;;;;;;2233520;64;20291;-89
2021/04/17 15:44:03;;;;;;;6.78;3.45;;;;;;;;;;2231893;64;20203;-89
2021/04/17 15:46:30;;;;;;;4.60;2.60;;;;;;;;;;2231999;64;20707;-86
2021/04/17 15:48:56;;;;;;;9.63;5.75;;;;;;;;;;2233897;64;20179;-89
2021/04/17 15:51:25;;;;;;;6.10;3.90;;;;;;;;;;2233816;64;20247;-89
2021/04/17 15:54:10;;;;;;;;;;;;;;;;;;;;;
2021/04/17 15:56:37;;;;;;;9.50;6.50;;;;;;;;;;2236375;64;20366;-86
2021/04/17 16:15:21;;;;;;;7.05;3.53;;;;;;;;;;2233526;64;20180;-86
2021/04/17 16:18:09;;;;;;;8.27;5.07;;;;;;;;;;2233276;64;20665;-86
2021/04/17 16:20:42;;;;;;;10.35;3.70;;;;;;;;;;2226564;64;20787;-86
2021/04/17 16:23:12;;;;;;;5.65;3.30;;;;;;;;;;2229946;64;20242;-87
2021/04/17 16:25:45;;;;;;;9.65;4.70;;;;;;;;;;2227834;64;20187;-86
2021/04/17 16:28:12;;;;;;;6.30;4.47;;;;;;;;;;2228021;64;20167;-88
2021/04/17 16:30:41;;;;;;;6.85;3.97;;;;;;;;;;2227148;64;20288;-88
2021/04/17 16:33:08;;;;;;;7.93;4.20;;;;;;;;;;2225434;64;20242;-87
2021/04/17 16:35:34;;;;;;;8.82;5.13;;;;;;;;;;2225651;64;20223;-88
2021/04/17 16:38:00;;;;;;;10.82;6.30;;;;;;;;;;2225630;64;20168;-85
2021/04/17 16:40:32;;;;;;;9.30;5.88;;;;;;;;;;2225084;64;20184;-86
2021/04/17 16:43:04;;;;;;;11.98;6.25;;;;;;;;;;2224972;64;20233;-89
2021/04/17 16:45:30;;;;;;;6.50;3.53;;;;;;;;;;2225434;64;20163;-89
2021/04/17 16:47:57;;;;;;;7.13;3.15;;;;;;;;;;2225614;64;20260;-88
2021/04/17 16:50:26;;;;;;;6.55;2.60;;;;;;;;;;2237183;64;20154;-86
2021/04/17 16:52:53;;;;;;;7.40;2.88;;;;;;;;;;2235761;64;20560;-87
2021/04/17 16:55:22;;;;;;;6.47;3.50;;;;;;;;;;2236935;64;20171;-88
2021/04/17 16:57:59;;;;;;;4.25;2.55;;;;;;;;;;2237864;64;20416;-87
2021/04/17 17:00:36;;;;;;;5.20;3.10;;;;;;;;;;2237967;64;20175;-88
2021/04/17 17:03:07;;;;;;;4.53;2.20;;;;;;;;;;2229685;64;20163;-90
2021/04/17 17:05:43;;;;;;;4.78;2.42;;;;;;;;;;2239254;64;20600;-89
2021/04/17 17:08:09;;;;;;;3.78;2.30;;;;;;;;;;2234867;64;20186;-91
2021/04/17 17:10:38;;;;;;;7.10;3.25;;;;;;;;;;2236338;64;20271;-87
2021/04/17 17:13:05;;;;;;;6.75;3.63;;;;;;;;;;2236320;64;20228;-89
2021/04/17 17:15:34;;;;;;;7.38;2.63;;;;;;;;;;2237411;64;20170;-89
2021/04/17 17:18:24;;;;;;;5.93;2.67;;;;;;;;;;2237113;64;20436;-89
2021/04/17 17:20:50;;;;;;;5.65;2.20;;;;;;;;;;2235398;64;20803;-88
2021/04/17 17:23:18;;;;;;;11.55;6.63;;;;;;;;;;2239602;64;20135;-88
2021/04/17 17:25:44;;;;;;;41.05;17.50;;;;;;;;;;2239134;64;20206;-89
2021/04/17 17:28:11;;;;;;;13.95;8.82;;;;;;;;;;2237619;64;20207;-90
2021/04/17 17:30:40;;;;;;;11.30;6.82;;;;;;;;;;2236934;64;20195;-87
2021/04/17 17:33:09;;;;;;;13.75;7.78;;;;;;;;;;2236627;64;20299;-87
2021/04/17 17:35:37;;;;;;;14.07;8.75;;;;;;;;;;2232186;64;20127;-88
2021/04/17 17:38:09;;;;;;;9.73;5.73;;;;;;;;;;2233026;64;20140;-89
2021/04/17 17:40:50;;;;;;;9.65;6.05;;;;;;;;;;2232940;64;20197;-87
2021/04/17 17:43:34;;;;;;;11.02;6.15;;;;;;;;;;2228314;64;20179;-87
2021/04/17 17:46:19;;;;;;;15.20;5.90;;;;;;;;;;2234057;64;20307;-87
2021/04/17 17:49:05;;;;;;;18.67;12.20;;;;;;;;;;2239385;64;20197;-89
2021/04/17 17:51:46;;;;;;;14.35;8.80;;;;;;;;;;2235759;64;20925;-89
2021/04/17 17:54:16;;;;;;;10.60;5.32;;;;;;;;;;2237706;64;20242;-89
2021/04/17 17:57:07;;;;;;;3.58;2.60;;;;;;;;;;2237870;64;20269;-88
2021/04/17 17:59:55;;;;;;;6.75;3.58;;;;;;;;;;2240135;63;20186;-88
2021/04/17 18:02:37;;;;;;;9.65;3.45;;;;;;;;;;2238884;64;20179;-89
2021/04/17 18:05:36;;;;;;;4.68;2.15;;;;;;;;;;2240883;64;20228;-87
2021/04/17 18:08:29;;;;;;;;;;;;;;;;;;2237835;64;20210;-87
2021/04/17 18:11:22;;;;;;;17.52;10.45;;;;;;;;;;2241395;63;20017;-87
2021/04/17 18:17:41;;;;;;;11.70;7.25;;;;;;;;;;2241633;63;20145;-87
2021/04/17 18:20:31;;;;;;;11.25;7.07;;;;;;;;;;2240197;63;20107;-88
2021/04/17 18:23:17;;;;;;;11.05;3.75;;;;;;;;;;2238949;64;20224;-87
2021/04/17 18:26:18;;;;;;;9.02;4.00;;;;;;;;;;2240849;63;20214;-87
2021/04/17 18:29:12;;;;;;;23.45;12.48;;;;;;;;;;2241758;63;20137;-87
2021/04/17 18:32:13;;;;;;;32.50;23.55;;;;;;;;;;2237886;63;20198;-87
2021/04/17 18:35:15;;;;;;;26.77;15.88;;;;;;;;;;2241660;63;20119;-88
2021/04/17 18:38:10;;;;;;;10.02;5.65;;;;;;;;;;2241725;63;20172;-88
2021/04/17 18:41:07;;;;;;;26.27;17.92;;;;;;;;;;2223472;64;20207;-90
2021/04/17 18:43:35;;;;;;;24.27;16.05;;;;;;;;;;2229318;64;20182;-89
2021/04/17 18:46:16;;;;;;;10.93;7.80;;;;;;;;;;2236970;64;20597;-90
2021/04/17 18:48:49;;;;;;;10.98;5.60;;;;;;;;;;2237397;64;20163;-90
2021/04/17 18:51:20;;;;;;;8.57;3.70;;;;;;;;;;2238728;64;20162;-88
2021/04/17 18:54:13;;;;;;;10.68;3.58;;;;;;;;;;2231426;64;20364;-88
2021/04/17 18:56:52;;;;;;;8.25;3.67;;;;;;;;;;2238087;64;20163;-89
2021/04/17 18:59:18;;;;;;;7.43;4.07;;;;;;;;;;2237747;64;20182;-88
2021/04/17 19:02:05;;;;;;;6.68;4.05;;;;;;;;;;2236485;64;20163;-90
2021/04/17 19:04:32;;;;;;;9.93;3.97;;;;;;;;;;2236981;64;20304;-87
2021/04/17 19:06:59;;;;;;;13.20;6.90;;;;;;;;;;2236641;64;20195;-85
2021/04/17 19:09:39;;;;;;;11.43;5.68;;;;;;;;;;2236863;64;20227;-87
2021/04/17 19:12:08;;;;;;;12.88;5.63;;;;;;;;;;2235927;64;20295;-87
2021/04/17 19:14:38;;;;;;;7.55;4.47;;;;;;;;;;2235964;64;20628;-88
2021/04/17 19:17:40;;;;;;;7.75;4.68;;;;;;;;;;2241413;64;20143;-87
2021/04/17 19:20:33;;;;;;;10.38;4.43;;;;;;;;;;2231115;63;20163;-88
2021/04/17 19:23:24;;;;;;;12.25;4.38;;;;;;;;;;2240672;64;20208;-91
2021/04/17 19:25:51;;;;;;;9.63;4.25;;;;;;;;;;2240433;63;20188;-88
2021/04/17 19:28:27;;;;;;;11.18;4.72;;;;;;;;;;2239383;64;20178;-87
2021/04/17 19:31:09;;;;;;;14.15;7.00;;;;;;;;;;2232567;64;20250;-88
2021/04/17 19:33:56;;;;;;;13.18;6.13;;;;;;;;;;2239176;64;20209;-87
2021/04/17 19:36:28;;;;;;;13.02;6.57;;;;;;;;;;2246716;64;20385;-86
2021/04/17 19:39:13;;;;;;;15.32;7.05;;;;;;;;;;2250528;52;20195;-85
2021/04/17 19:41:40;;;;;;;14.85;7.60;;;;;;;;;;2247759;64;20149;-81
2021/04/17 19:44:07;;;;;;;12.25;6.47;;;;;;;;;;2248731;64;20150;-85
2021/04/17 19:46:33;;;;;;;13.02;5.63;;;;;;;;;;2249404;63;20237;-81
2021/04/17 19:49:00;;;;;;;14.15;5.57;;;;;;;;;;2247269;63;20213;-85
2021/04/17 19:51:28;;;;;;;12.10;5.20;;;;;;;;;;2248869;63;20273;-81
2021/04/17 19:53:55;;;;;;;14.77;6.63;;;;;;;;;;2249302;63;20237;-81
2021/04/17 19:56:22;;;;;;;8.43;4.97;;;;;;;;;;2249239;63;20190;-83
2021/04/17 19:58:54;;;;;;;8.20;4.80;;;;;;;;;;2249161;63;20188;-81
2021/04/17 20:01:21;;;;;;;8.98;5.18;;;;;;;;;;2248784;63;20247;-83
2021/04/17 20:03:48;;;;;;;13.68;6.00;;;;;;;;;;2248666;63;20184;-81
2021/04/17 20:06:17;;;;;;;12.15;4.93;;;;;;;;;;2248610;63;20165;-79
2021/04/17 20:08:43;;;;;;;10.63;5.75;;;;;;;;;;2248309;63;20182;-86
2021/04/17 20:11:11;;;;;;;13.30;6.50;;;;;;;;;;2247788;63;20206;-83
2021/04/17 20:13:38;;;;;;;10.88;6.38;;;;;;;;;;2247680;63;20250;-79
2021/04/17 20:16:04;;;;;;;11.45;6.55;;;;;;;;;;2247924;63;20207;-80
2021/04/17 20:18:32;;;;;;;11.70;8.88;;;;;;;;;;2247994;64;20156;-80
2021/04/17 20:20:59;;;;;;;18.15;8.45;;;;;;;;;;2248244;64;20188;-78
2021/04/17 20:23:26;;;;;;;16.35;9.82;;;;;;;;;;2248322;63;20205;-79
2021/04/17 20:25:53;;;;;;;21.08;15.13;;;;;;;;;;2248145;64;20190;-83
2021/04/17 20:28:20;;;;;;;23.15;18.42;;;;;;;;;;2247937;63;20202;-82
2021/04/17 20:30:47;;;;;;;20.45;17.77;;;;;;;;;;2247860;64;20296;-83
2021/04/17 20:33:14;;;;;;;24.20;18.13;;;;;;;;;;2248019;63;20182;-79
2021/04/17 20:35:43;;;;;;;20.23;14.80;;;;;;;;;;2248133;64;20303;-82
2021/04/17 20:38:11;;;;;;;17.60;13.32;;;;;;;;;;2249308;63;20335;-81
2021/04/17 20:40:48;;;;;;;17.80;13.30;;;;;;;;;;2248623;63;20207;-81
2021/04/17 20:43:19;;;;;;;19.08;12.23;;;;;;;;;;2247741;64;20183;-84
2021/04/17 20:46:04;;;;;;;18.50;12.55;;;;;;;;;;2248272;64;20217;-82
2021/04/17 20:48:32;;;;;;;19.38;12.00;;;;;;;;;;2248222;63;20193;-83
2021/04/17 20:51:08;;;;;;;18.70;14.13;;;;;;;;;;2247405;64;20303;-83
2021/04/17 20:53:40;;;;;;;16.83;13.85;;;;;;;;;;2247942;64;20182;-86
2021/04/17 20:56:12;;;;;;;19.10;14.07;;;;;;;;;;2248534;63;20189;-80
2021/04/17 20:58:41;;;;;;;23.70;14.60;;;;;;;;;;2248767;63;20226;-83
2021/04/17 21:01:14;;;;;;;22.38;15.50;;;;;;;;;;2249170;64;20215;-84
2021/04/17 21:03:41;;;;;;;16.67;14.77;;;;;;;;;;2249137;63;20149;-82
2021/04/17 21:06:08;;;;;;;17.67;12.75;;;;;;;;;;2249075;63;20132;-80
2021/04/17 21:08:36;;;;;;;18.08;12.82;;;;;;;;;;2248707;63;20142;-82
2021/04/17 21:11:05;;;;;;;14.95;9.15;;;;;;;;;;2248852;63;20150;-86
2021/04/17 21:13:32;;;;;;;12.88;7.07;;;;;;;;;;2249072;64;20175;-86
2021/04/17 21:16:00;;;;;;;12.82;7.53;;;;;;;;;;2249206;63;20170;-86
2021/04/17 21:18:28;;;;;;;13.82;9.63;;;;;;;;;;2249474;63;20213;-83
2021/04/17 21:20:55;;;;;;;19.23;10.45;;;;;;;;;;2248626;63;20270;-80
2021/04/17 21:23:23;;;;;;;13.70;10.27;;;;;;;;;;2248708;63;20162;-83
2021/04/17 21:25:51;;;;;;;19.65;10.10;;;;;;;;;;2249220;63;20173;-86
2021/04/17 21:28:18;;;;;;;15.80;10.02;;;;;;;;;;2248541;64;20196;-84
2021/04/17 21:30:46;;;;;;;15.32;9.25;;;;;;;;;;2248876;63;20178;-81
2021/04/17 21:33:13;;;;;;;13.00;8.50;;;;;;;;;;2248506;63;20180;-82
2021/04/17 21:35:40;;;;;;;17.92;8.88;;;;;;;;;;2248324;63;20237;-85
2021/04/17 21:38:09;;;;;;;15.32;9.20;;;;;;;;;;2248414;63;20178;-86
2021/04/17 21:40:37;;;;;;;20.23;8.80;;;;;;;;;;2248676;63;20178;-82
2021/04/17 21:43:05;;;;;;;14.38;8.55;;;;;;;;;;2248588;63;20158;-85
2021/04/17 21:45:33;;;;;;;14.38;8.00;;;;;;;;;;2248776;63;20272;-79
2021/04/17 21:48:01;;;;;;;12.77;8.13;;;;;;;;;;2248705;63;20138;-80
2021/04/17 21:50:29;;;;;;;15.85;9.05;;;;;;;;;;2248513;63;20111;-82
2021/04/17 21:52:57;;;;;;;13.75;8.75;;;;;;;;;;2248659;64;20303;-84
2021/04/17 21:55:24;;;;;;;15.52;8.40;;;;;;;;;;2248921;63;20143;-84
2021/04/17 21:57:52;;;;;;;15.30;8.80;;;;;;;;;;2249425;63;20338;-79
2021/04/17 22:00:42;;;;;;;17.55;8.85;;;;;;;;;;2249605;63;20144;-80
2021/04/17 22:03:15;;;;;;;18.30;9.38;;;;;;;;;;2249783;63;20118;-83
2021/04/17 22:05:43;;;;;;;20.65;10.23;;;;;;;;;;2249445;63;20127;-84
2021/04/17 22:08:11;;;;;;;13.77;9.60;;;;;;;;;;2248812;64;20187;-83
2021/04/17 22:10:39;;;;;;;14.20;9.07;;;;;;;;;;2249670;63;20152;-84
2021/04/17 22:13:07;;;;;;;17.92;10.45;;;;;;;;;;2249745;63;20144;-83
2021/04/17 22:15:37;;;;;;;17.85;8.90;;;;;;;;;;2249682;63;20244;-85
2021/04/17 22:18:05;;;;;;;17.70;8.75;;;;;;;;;;2249601;63;20220;-83
2021/04/17 22:20:33;;;;;;;16.08;8.52;;;;;;;;;;2249583;63;20146;-85
2021/04/17 22:23:02;;;;;;;15.93;8.13;;;;;;;;;;2242746;63;20214;-85
2021/04/17 22:25:29;;;;;;;17.20;8.02;;;;;;;;;;2249449;63;20255;-85
2021/04/17 22:27:57;;;;;;;13.25;7.55;;;;;;;;;;2249377;63;20178;-84
2021/04/17 22:30:25;;;;;;;18.73;8.40;;;;;;;;;;2249527;63;20111;-81
2021/04/17 22:32:52;;;;;;;14.63;7.88;;;;;;;;;;2249541;63;20201;-86
2021/04/17 22:35:21;;;;;;;15.95;7.35;;;;;;;;;;2249404;63;20174;-86
2021/04/17 22:37:48;;;;;;;14.85;8.63;;;;;;;;;;2249339;63;20350;-86
2021/04/17 22:40:18;;;;;;;16.88;7.82;;;;;;;;;;2249434;63;20218;-83
2021/04/17 22:42:45;;;;;;;18.33;8.43;;;;;;;;;;2249476;63;20207;-85
2021/04/17 22:45:12;;;;;;;19.13;8.60;;;;;;;;;;2249365;63;20137;-84
2021/04/17 22:47:40;;;;;;;16.20;8.15;;;;;;;;;;2249494;63;20217;-84
2021/04/17 22:50:09;;;;;;;16.00;7.65;;;;;;;;;;2249225;63;20226;-82
2021/04/17 22:52:37;;;;;;;17.08;8.30;;;;;;;;;;2248608;63;20239;-86
2021/04/17 22:55:08;;;;;;;15.68;8.20;;;;;;;;;;2248612;63;20155;-85
2021/04/17 22:57:35;;;;;;;;;;;;;;;;;;2249155;63;20131;-85
2021/04/17 23:00:06;;;;;;;15.52;8.75;;;;;;;;;;2248886;63;20133;-84
2021/04/17 23:02:33;;;;;;;17.83;8.32;;;;;;;;;;2248427;63;20322;-85
2021/04/17 23:05:06;;;;;;;14.25;7.72;;;;;;;;;;2248659;63;20165;-82
2021/04/17 23:07:33;;;;;;;11.95;7.53;;;;;;;;;;2248548;63;20162;-85
2021/04/17 23:10:00;;;;;;;14.73;7.53;;;;;;;;;;2248676;63;20208;-83
2021/04/17 23:12:30;;;;;;;17.77;8.23;;;;;;;;;;2248821;63;20166;-86
2021/04/17 23:14:57;;;;;;;13.93;7.68;;;;;;;;;;2248065;63;20319;-81
2021/04/17 23:17:24;;;;;;;14.95;8.57;;;;;;;;;;2247954;63;20139;-85
2021/04/17 23:19:52;;;;;;;13.88;8.15;;;;;;;;;;2248052;63;20338;-87
2021/04/17 23:22:19;;;;;;;14.05;7.85;;;;;;;;;;2248533;64;20173;-84
2021/04/17 23:24:46;;;;;;;12.07;8.00;;;;;;;;;;2248519;63;20173;-85
2021/04/17 23:27:13;;;;;;;14.32;7.60;;;;;;;;;;2248381;63;20207;-86
2021/04/17 23:29:40;;;;;;;13.20;8.13;;;;;;;;;;2248178;64;20178;-85
2021/04/17 23:32:09;;;;;;;15.85;7.93;;;;;;;;;;2248222;63;20243;-88
2021/04/17 23:34:36;;;;;;;16.63;8.80;;;;;;;;;;2247528;63;20233;-84
2021/04/17 23:37:04;;;;;;;18.73;10.85;;;;;;;;;;2247918;64;20186;-84
2021/04/17 23:39:32;;;;;;;19.23;10.73;;;;;;;;;;2247625;63;20174;-82
2021/04/17 23:41:59;;;;;;;14.70;10.43;;;;;;;;;;2247658;63;20186;-84
2021/04/17 23:44:27;;;;;;;17.55;11.98;;;;;;;;;;2247189;63;20275;-84
2021/04/17 23:46:54;;;;;;;15.93;11.98;;;;;;;;;;2247842;63;20159;-84
2021/04/17 23:49:21;;;;;;;17.98;12.15;;;;;;;;;;2247920;63;20169;-84
2021/04/17 23:51:49;;;;;;;23.08;12.02;;;;;;;;;;2247532;63;20211;-83
2021/04/17 23:54:17;;;;;;;22.30;11.43;;;;;;;;;;2248113;63;20202;-86
2021/04/17 23:56:45;;;;;;;16.08;10.13;;;;;;;;;;2248108;63;20276;-85
2021/04/17 23:59:14;;;;;;;14.85;9.68;;;;;;;;;;2248552;63;20203;-86
